sensor_id;sensor_type;location;lat;lon;timestamp;P1;durP1;ratioP1;P2;durP2;ratioP2
23712;SDS011;12035;49.978;8.298;2022-12-29T00:01:58;5.10;;;1.60;;
23712;SDS011;12035;49.978;8.298;2022-12-29T00:07:00;2.60;;;1.20;;
23712;SDS011;12035;49.978;8.298;2022-12-29T00:11:59;4.20;;;1.50;;
23712;SDS011;12035;49.978;8.298;2022-12-29T00:16:57;3.05;;;1.33;;
23712;SDS011;12035;49.978;8.298;2022-12-29T00:21:58;2.58;;;1.23;;
23712;SDS011;12035;49.978;8.298;2022-12-29T00:27:40;3.38;;;1.50;;
23712;SDS011;12035;49.978;8.298;2022-12-29T00:32:54;3.05;;;1.35;;
23712;SDS011;12035;49.978;8.298;2022-12-29T00:38:10;3.67;;;1.10;;
23712;SDS011;12035;49.978;8.298;2022-12-29T00:43:26;2.17;;;1.20;;
23712;SDS011;12035;49.978;8.298;2022-12-29T00:48:37;3.53;;;1.30;;
23712;SDS011;12035;49.978;8.298;2022-12-29T00:53:52;3.42;;;1.63;;
23712;SDS011;12035;49.978;8.298;2022-12-29T00:58:49;4.03;;;1.42;;
23712;SDS011;12035;49.978;8.298;2022-12-29T01:03:46;3.45;;;1.33;;
23712;SDS011;12035;49.978;8.298;2022-12-29T01:08:43;2.92;;;1.25;;
23712;SDS011;12035;49.978;8.298;2022-12-29T01:13:42;4.63;;;1.40;;
23712;SDS011;12035;49.978;8.298;2022-12-29T01:18:39;3.63;;;1.20;;
23712;SDS011;12035;49.978;8.298;2022-12-29T01:23:36;2.00;;;1.23;;
23712;SDS011;12035;49.978;8.298;2022-12-29T01:28:33;2.65;;;1.05;;
23712;SDS011;12035;49.978;8.298;2022-12-29T01:33:31;1.63;;;1.00;;
23712;SDS011;12035;49.978;8.298;2022-12-29T01:38:29;4.15;;;1.35;;
23712;SDS011;12035;49.978;8.298;2022-12-29T01:43:38;2.03;;;1.10;;
23712;SDS011;12035;49.978;8.298;2022-12-29T01:48:39;1.60;;;1.10;;
23712;SDS011;12035;49.978;8.298;2022-12-29T01:53:36;2.53;;;1.13;;
23712;SDS011;12035;49.978;8.298;2022-12-29T01:58:34;3.97;;;1.13;;
23712;SDS011;12035;49.978;8.298;2022-12-29T02:03:34;3.35;;;1.00;;
23712;SDS011;12035;49.978;8.298;2022-12-29T02:08:34;2.00;;;0.98;;
23712;SDS011;12035;49.978;8.298;2022-12-29T02:13:31;2.25;;;0.82;;
23712;SDS011;12035;49.978;8.298;2022-12-29T02:18:31;3.00;;;1.00;;
23712;SDS011;12035;49.978;8.298;2022-12-29T02:24:03;1.52;;;0.90;;
23712;SDS011;12035;49.978;8.298;2022-12-29T02:29:36;2.35;;;0.90;;
23712;SDS011;12035;49.978;8.298;2022-12-29T02:35:00;3.90;;;0.80;;
23712;SDS011;12035;49.978;8.298;2022-12-29T02:40:12;3.13;;;0.80;;
23712;SDS011;12035;49.978;8.298;2022-12-29T02:45:20;2.03;;;0.80;;
23712;SDS011;12035;49.978;8.298;2022-12-29T02:50:25;1.85;;;0.80;;
23712;SDS011;12035;49.978;8.298;2022-12-29T02:55:27;1.02;;;0.70;;
23712;SDS011;12035;49.978;8.298;2022-12-29T03:00:24;1.30;;;0.80;;
23712;SDS011;12035;49.978;8.298;2022-12-29T03:05:25;1.63;;;0.80;;
23712;SDS011;12035;49.978;8.298;2022-12-29T03:10:44;2.13;;;0.70;;
23712;SDS011;12035;49.978;8.298;2022-12-29T03:15:53;2.67;;;0.70;;
23712;SDS011;12035;49.978;8.298;2022-12-29T03:21:04;3.33;;;0.80;;
23712;SDS011;12035;49.978;8.298;2022-12-29T03:26:08;4.32;;;1.00;;
23712;SDS011;12035;49.978;8.298;2022-12-29T03:31:08;3.85;;;1.17;;
23712;SDS011;12035;49.978;8.298;2022-12-29T03:36:08;1.77;;;0.90;;
23712;SDS011;12035;49.978;8.298;2022-12-29T03:41:14;2.57;;;1.00;;
23712;SDS011;12035;49.978;8.298;2022-12-29T03:46:16;1.92;;;1.00;;
23712;SDS011;12035;49.978;8.298;2022-12-29T03:51:16;2.60;;;0.93;;
23712;SDS011;12035;49.978;8.298;2022-12-29T03:56:13;1.77;;;1.00;;
23712;SDS011;12035;49.978;8.298;2022-12-29T04:01:14;2.10;;;1.00;;
23712;SDS011;12035;49.978;8.298;2022-12-29T04:06:12;3.45;;;1.00;;
23712;SDS011;12035;49.978;8.298;2022-12-29T04:11:10;3.80;;;1.05;;
23712;SDS011;12035;49.978;8.298;2022-12-29T04:16:10;1.75;;;1.08;;
23712;SDS011;12035;49.978;8.298;2022-12-29T04:21:11;1.52;;;0.90;;
23712;SDS011;12035;49.978;8.298;2022-12-29T04:26:08;3.58;;;1.00;;
23712;SDS011;12035;49.978;8.298;2022-12-29T04:31:07;3.10;;;0.88;;
23712;SDS011;12035;49.978;8.298;2022-12-29T04:36:06;2.33;;;0.82;;
23712;SDS011;12035;49.978;8.298;2022-12-29T04:41:04;4.95;;;1.55;;
23712;SDS011;12035;49.978;8.298;2022-12-29T04:46:02;3.67;;;1.10;;
23712;SDS011;12035;49.978;8.298;2022-12-29T04:51:00;2.67;;;1.10;;
23712;SDS011;12035;49.978;8.298;2022-12-29T04:55:57;2.55;;;1.20;;
23712;SDS011;12035;49.978;8.298;2022-12-29T05:00:54;6.50;;;1.25;;
23712;SDS011;12035;49.978;8.298;2022-12-29T05:05:54;2.63;;;1.00;;
23712;SDS011;12035;49.978;8.298;2022-12-29T05:10:52;2.05;;;1.10;;
23712;SDS011;12035;49.978;8.298;2022-12-29T05:15:49;2.42;;;0.95;;
23712;SDS011;12035;49.978;8.298;2022-12-29T05:20:47;2.13;;;0.98;;
23712;SDS011;12035;49.978;8.298;2022-12-29T05:25:46;1.75;;;0.80;;
23712;SDS011;12035;49.978;8.298;2022-12-29T05:30:43;1.83;;;0.80;;
23712;SDS011;12035;49.978;8.298;2022-12-29T05:35:40;2.58;;;0.82;;
23712;SDS011;12035;49.978;8.298;2022-12-29T05:45:35;2.77;;;0.90;;
23712;SDS011;12035;49.978;8.298;2022-12-29T05:50:32;4.30;;;1.00;;
23712;SDS011;12035;49.978;8.298;2022-12-29T05:55:29;2.53;;;1.00;;
23712;SDS011;12035;49.978;8.298;2022-12-29T06:00:27;2.70;;;1.00;;
23712;SDS011;12035;49.978;8.298;2022-12-29T06:05:25;2.35;;;0.77;;
23712;SDS011;12035;49.978;8.298;2022-12-29T06:10:22;2.13;;;1.00;;
23712;SDS011;12035;49.978;8.298;2022-12-29T06:15:20;3.13;;;0.93;;
23712;SDS011;12035;49.978;8.298;2022-12-29T06:20:20;2.65;;;0.73;;
23712;SDS011;12035;49.978;8.298;2022-12-29T06:25:18;2.30;;;1.05;;
23712;SDS011;12035;49.978;8.298;2022-12-29T06:30:16;2.78;;;1.00;;
23712;SDS011;12035;49.978;8.298;2022-12-29T06:35:13;1.55;;;0.80;;
23712;SDS011;12035;49.978;8.298;2022-12-29T06:40:10;3.53;;;1.25;;
23712;SDS011;12035;49.978;8.298;2022-12-29T06:45:09;1.98;;;1.08;;
23712;SDS011;12035;49.978;8.298;2022-12-29T06:50:07;3.38;;;1.00;;
23712;SDS011;12035;49.978;8.298;2022-12-29T06:55:05;2.83;;;1.20;;
23712;SDS011;12035;49.978;8.298;2022-12-29T07:00:03;2.53;;;1.05;;
23712;SDS011;12035;49.978;8.298;2022-12-29T07:05:03;3.45;;;1.17;;
23712;SDS011;12035;49.978;8.298;2022-12-29T07:10:02;2.00;;;1.10;;
23712;SDS011;12035;49.978;8.298;2022-12-29T07:15:00;4.05;;;1.20;;
23712;SDS011;12035;49.978;8.298;2022-12-29T07:19:57;3.42;;;1.35;;
23712;SDS011;12035;49.978;8.298;2022-12-29T07:24:55;2.40;;;1.20;;
23712;SDS011;12035;49.978;8.298;2022-12-29T07:29:52;6.03;;;1.50;;
23712;SDS011;12035;49.978;8.298;2022-12-29T07:34:50;3.35;;;1.38;;
23712;SDS011;12035;49.978;8.298;2022-12-29T07:39:47;2.72;;;1.30;;
23712;SDS011;12035;49.978;8.298;2022-12-29T07:44:46;4.25;;;1.70;;
23712;SDS011;12035;49.978;8.298;2022-12-29T07:49:43;6.68;;;1.65;;
23712;SDS011;12035;49.978;8.298;2022-12-29T07:54:40;5.32;;;1.50;;
23712;SDS011;12035;49.978;8.298;2022-12-29T07:59:37;3.70;;;1.77;;
23712;SDS011;12035;49.978;8.298;2022-12-29T08:04:36;7.90;;;2.00;;
23712;SDS011;12035;49.978;8.298;2022-12-29T08:09:34;3.03;;;1.40;;
23712;SDS011;12035;49.978;8.298;2022-12-29T08:14:31;3.05;;;1.45;;
23712;SDS011;12035;49.978;8.298;2022-12-29T08:19:28;2.72;;;1.45;;
23712;SDS011;12035;49.978;8.298;2022-12-29T08:24:26;3.17;;;1.65;;
23712;SDS011;12035;49.978;8.298;2022-12-29T08:29:23;2.33;;;1.30;;
23712;SDS011;12035;49.978;8.298;2022-12-29T08:34:21;4.32;;;1.38;;
23712;SDS011;12035;49.978;8.298;2022-12-29T08:39:18;3.45;;;1.50;;
23712;SDS011;12035;49.978;8.298;2022-12-29T08:44:17;4.68;;;1.73;;
23712;SDS011;12035;49.978;8.298;2022-12-29T08:49:14;2.28;;;1.40;;
23712;SDS011;12035;49.978;8.298;2022-12-29T08:54:14;4.45;;;2.00;;
23712;SDS011;12035;49.978;8.298;2022-12-29T08:59:11;2.80;;;1.33;;
23712;SDS011;12035;49.978;8.298;2022-12-29T09:04:10;5.70;;;1.85;;
23712;SDS011;12035;49.978;8.298;2022-12-29T09:09:07;4.30;;;1.80;;
23712;SDS011;12035;49.978;8.298;2022-12-29T09:14:05;4.40;;;1.75;;
23712;SDS011;12035;49.978;8.298;2022-12-29T09:24:00;3.25;;;1.40;;
23712;SDS011;12035;49.978;8.298;2022-12-29T09:28:57;5.32;;;1.77;;
23712;SDS011;12035;49.978;8.298;2022-12-29T09:33:54;5.25;;;2.05;;
23712;SDS011;12035;49.978;8.298;2022-12-29T09:49:13;4.28;;;2.10;;
23712;SDS011;12035;49.978;8.298;2022-12-29T09:54:24;3.00;;;1.27;;
23712;SDS011;12035;49.978;8.298;2022-12-29T09:59:38;3.92;;;1.58;;
23712;SDS011;12035;49.978;8.298;2022-12-29T10:04:37;2.40;;;0.90;;
23712;SDS011;12035;49.978;8.298;2022-12-29T10:09:37;2.95;;;1.00;;
23712;SDS011;12035;49.978;8.298;2022-12-29T10:14:47;3.45;;;1.00;;
23712;SDS011;12035;49.978;8.298;2022-12-29T10:20:05;1.70;;;0.90;;
23712;SDS011;12035;49.978;8.298;2022-12-29T10:25:18;3.03;;;0.75;;
23712;SDS011;12035;49.978;8.298;2022-12-29T10:30:18;1.38;;;0.63;;
23712;SDS011;12035;49.978;8.298;2022-12-29T10:35:18;2.90;;;0.90;;
23712;SDS011;12035;49.978;8.298;2022-12-29T10:40:19;1.50;;;0.60;;
23712;SDS011;12035;49.978;8.298;2022-12-29T10:45:26;1.63;;;0.60;;
23712;SDS011;12035;49.978;8.298;2022-12-29T10:50:27;4.32;;;0.60;;
23712;SDS011;12035;49.978;8.298;2022-12-29T10:55:26;1.45;;;0.50;;
23712;SDS011;12035;49.978;8.298;2022-12-29T11:00:30;2.20;;;0.50;;
23712;SDS011;12035;49.978;8.298;2022-12-29T11:05:29;2.05;;;0.47;;
23712;SDS011;12035;49.978;8.298;2022-12-29T11:10:34;2.63;;;0.70;;
23712;SDS011;12035;49.978;8.298;2022-12-29T11:15:41;0.73;;;0.40;;
23712;SDS011;12035;49.978;8.298;2022-12-29T11:20:40;3.38;;;0.77;;
23712;SDS011;12035;49.978;8.298;2022-12-29T11:25:38;1.45;;;0.40;;
23712;SDS011;12035;49.978;8.298;2022-12-29T11:30:37;3.03;;;0.75;;
23712;SDS011;12035;49.978;8.298;2022-12-29T11:35:36;1.10;;;0.52;;
23712;SDS011;12035;49.978;8.298;2022-12-29T11:40:37;3.47;;;0.88;;
23712;SDS011;12035;49.978;8.298;2022-12-29T11:45:36;2.80;;;0.60;;
23712;SDS011;12035;49.978;8.298;2022-12-29T11:50:33;1.48;;;0.50;;
23712;SDS011;12035;49.978;8.298;2022-12-29T11:55:35;2.20;;;0.50;;
23712;SDS011;12035;49.978;8.298;2022-12-29T12:00:34;2.85;;;0.70;;
23712;SDS011;12035;49.978;8.298;2022-12-29T12:05:38;1.55;;;0.43;;
23712;SDS011;12035;49.978;8.298;2022-12-29T12:10:39;3.35;;;0.60;;
23712;SDS011;12035;49.978;8.298;2022-12-29T12:15:44;3.70;;;0.93;;
23712;SDS011;12035;49.978;8.298;2022-12-29T12:20:50;1.65;;;0.60;;
23712;SDS011;12035;49.978;8.298;2022-12-29T12:25:53;2.95;;;0.75;;
23712;SDS011;12035;49.978;8.298;2022-12-29T12:31:02;1.98;;;0.70;;
23712;SDS011;12035;49.978;8.298;2022-12-29T12:36:17;1.52;;;0.50;;
23712;SDS011;12035;49.978;8.298;2022-12-29T12:41:37;1.95;;;0.77;;
23712;SDS011;12035;49.978;8.298;2022-12-29T12:46:52;1.77;;;0.77;;
23712;SDS011;12035;49.978;8.298;2022-12-29T12:52:32;2.08;;;0.77;;
23712;SDS011;12035;49.978;8.298;2022-12-29T12:57:46;3.22;;;0.90;;
23712;SDS011;12035;49.978;8.298;2022-12-29T13:02:59;5.18;;;0.60;;
23712;SDS011;12035;49.978;8.298;2022-12-29T13:08:16;3.22;;;0.70;;
23712;SDS011;12035;49.978;8.298;2022-12-29T13:19:21;3.30;;;0.80;;
23712;SDS011;12035;49.978;8.298;2022-12-29T13:24:28;3.88;;;0.90;;
23712;SDS011;12035;49.978;8.298;2022-12-29T13:29:39;1.92;;;0.70;;
23712;SDS011;12035;49.978;8.298;2022-12-29T13:34:46;2.63;;;0.90;;
23712;SDS011;12035;49.978;8.298;2022-12-29T13:39:56;1.75;;;0.60;;
23712;SDS011;12035;49.978;8.298;2022-12-29T13:44:59;3.55;;;1.15;;
23712;SDS011;12035;49.978;8.298;2022-12-29T13:50:01;2.85;;;0.95;;
23712;SDS011;12035;49.978;8.298;2022-12-29T13:55:07;1.35;;;0.63;;
23712;SDS011;12035;49.978;8.298;2022-12-29T14:00:18;2.83;;;0.63;;
23712;SDS011;12035;49.978;8.298;2022-12-29T14:05:27;2.25;;;0.70;;
23712;SDS011;12035;49.978;8.298;2022-12-29T14:10:29;3.78;;;0.90;;
23712;SDS011;12035;49.978;8.298;2022-12-29T14:15:30;2.92;;;0.80;;
23712;SDS011;12035;49.978;8.298;2022-12-29T14:20:29;4.60;;;0.90;;
23712;SDS011;12035;49.978;8.298;2022-12-29T14:31:33;5.40;;;0.88;;
23712;SDS011;12035;49.978;8.298;2022-12-29T14:36:36;3.15;;;0.80;;
23712;SDS011;12035;49.978;8.298;2022-12-29T14:41:37;2.60;;;0.90;;
23712;SDS011;12035;49.978;8.298;2022-12-29T14:46:42;2.55;;;0.55;;
23712;SDS011;12035;49.978;8.298;2022-12-29T14:51:43;4.22;;;0.80;;
23712;SDS011;12035;49.978;8.298;2022-12-29T14:56:42;3.85;;;0.70;;
23712;SDS011;12035;49.978;8.298;2022-12-29T15:01:42;2.83;;;0.70;;
23712;SDS011;12035;49.978;8.298;2022-12-29T15:06:46;3.10;;;0.80;;
23712;SDS011;12035;49.978;8.298;2022-12-29T15:11:49;2.60;;;0.77;;
23712;SDS011;12035;49.978;8.298;2022-12-29T15:16:50;3.42;;;0.90;;
23712;SDS011;12035;49.978;8.298;2022-12-29T15:21:49;3.05;;;0.80;;
23712;SDS011;12035;49.978;8.298;2022-12-29T15:26:48;3.13;;;1.08;;
23712;SDS011;12035;49.978;8.298;2022-12-29T15:31:49;2.00;;;0.80;;
23712;SDS011;12035;49.978;8.298;2022-12-29T15:36:49;1.77;;;0.70;;
23712;SDS011;12035;49.978;8.298;2022-12-29T15:41:47;2.47;;;0.70;;
23712;SDS011;12035;49.978;8.298;2022-12-29T15:46:56;4.65;;;0.80;;
23712;SDS011;12035;49.978;8.298;2022-12-29T15:51:54;3.42;;;0.60;;
23712;SDS011;12035;49.978;8.298;2022-12-29T15:56:53;2.65;;;0.70;;
23712;SDS011;12035;49.978;8.298;2022-12-29T16:01:51;3.90;;;0.80;;
23712;SDS011;12035;49.978;8.298;2022-12-29T16:06:54;4.05;;;0.80;;
23712;SDS011;12035;49.978;8.298;2022-12-29T16:11:56;5.13;;;0.75;;
23712;SDS011;12035;49.978;8.298;2022-12-29T16:16:57;2.60;;;0.70;;
23712;SDS011;12035;49.978;8.298;2022-12-29T16:21:59;4.70;;;0.80;;
23712;SDS011;12035;49.978;8.298;2022-12-29T16:27:02;3.97;;;1.00;;
23712;SDS011;12035;49.978;8.298;2022-12-29T16:32:19;3.65;;;0.90;;
23712;SDS011;12035;49.978;8.298;2022-12-29T16:37:26;3.40;;;0.90;;
23712;SDS011;12035;49.978;8.298;2022-12-29T16:42:35;3.63;;;1.10;;
23712;SDS011;12035;49.978;8.298;2022-12-29T16:47:42;3.00;;;0.90;;
23712;SDS011;12035;49.978;8.298;2022-12-29T16:52:40;4.82;;;1.20;;
23712;SDS011;12035;49.978;8.298;2022-12-29T16:57:38;3.97;;;1.00;;
23712;SDS011;12035;49.978;8.298;2022-12-29T17:02:40;4.07;;;0.98;;
23712;SDS011;12035;49.978;8.298;2022-12-29T17:07:39;3.78;;;0.98;;
23712;SDS011;12035;49.978;8.298;2022-12-29T17:12:37;5.57;;;1.17;;
23712;SDS011;12035;49.978;8.298;2022-12-29T17:17:38;3.75;;;1.30;;
23712;SDS011;12035;49.978;8.298;2022-12-29T17:22:37;5.85;;;1.40;;
23712;SDS011;12035;49.978;8.298;2022-12-29T17:27:35;5.63;;;1.20;;
23712;SDS011;12035;49.978;8.298;2022-12-29T17:32:39;4.72;;;0.82;;
23712;SDS011;12035;49.978;8.298;2022-12-29T17:37:36;3.67;;;0.98;;
23712;SDS011;12035;49.978;8.298;2022-12-29T17:42:34;2.90;;;1.00;;
23712;SDS011;12035;49.978;8.298;2022-12-29T17:47:39;3.03;;;0.93;;
23712;SDS011;12035;49.978;8.298;2022-12-29T17:52:36;16.27;;;1.15;;
23712;SDS011;12035;49.978;8.298;2022-12-29T17:57:34;6.55;;;1.48;;
23712;SDS011;12035;49.978;8.298;2022-12-29T18:02:32;4.97;;;1.27;;
23712;SDS011;12035;49.978;8.298;2022-12-29T18:07:29;5.80;;;1.10;;
23712;SDS011;12035;49.978;8.298;2022-12-29T18:12:28;3.72;;;1.10;;
23712;SDS011;12035;49.978;8.298;2022-12-29T18:17:32;5.15;;;1.17;;
23712;SDS011;12035;49.978;8.298;2022-12-29T18:22:29;4.18;;;1.27;;
23712;SDS011;12035;49.978;8.298;2022-12-29T18:27:26;5.80;;;1.20;;
23712;SDS011;12035;49.978;8.298;2022-12-29T18:32:23;6.03;;;1.25;;
23712;SDS011;12035;49.978;8.298;2022-12-29T18:37:23;8.10;;;1.60;;
23712;SDS011;12035;49.978;8.298;2022-12-29T18:42:20;8.57;;;1.25;;
23712;SDS011;12035;49.978;8.298;2022-12-29T18:47:17;7.55;;;1.60;;
23712;SDS011;12035;49.978;8.298;2022-12-29T18:57:14;5.53;;;1.40;;
23712;SDS011;12035;49.978;8.298;2022-12-29T19:02:14;5.35;;;1.30;;
23712;SDS011;12035;49.978;8.298;2022-12-29T19:07:12;8.30;;;1.20;;
23712;SDS011;12035;49.978;8.298;2022-12-29T19:12:09;6.82;;;1.30;;
23712;SDS011;12035;49.978;8.298;2022-12-29T19:17:11;4.70;;;1.20;;
23712;SDS011;12035;49.978;8.298;2022-12-29T19:22:09;4.22;;;1.02;;
23712;SDS011;12035;49.978;8.298;2022-12-29T19:27:06;3.40;;;0.90;;
23712;SDS011;12035;49.978;8.298;2022-12-29T19:32:05;5.60;;;1.20;;
23712;SDS011;12035;49.978;8.298;2022-12-29T19:37:02;5.47;;;1.50;;
23712;SDS011;12035;49.978;8.298;2022-12-29T19:42:01;7.88;;;1.50;;
23712;SDS011;12035;49.978;8.298;2022-12-29T19:46:59;5.95;;;1.40;;
23712;SDS011;12035;49.978;8.298;2022-12-29T19:52:02;4.88;;;1.17;;
23712;SDS011;12035;49.978;8.298;2022-12-29T19:57:00;6.30;;;1.25;;
23712;SDS011;12035;49.978;8.298;2022-12-29T20:01:57;9.95;;;1.70;;
23712;SDS011;12035;49.978;8.298;2022-12-29T20:06:56;8.65;;;1.42;;
23712;SDS011;12035;49.978;8.298;2022-12-29T20:11:56;6.10;;;1.73;;
23712;SDS011;12035;49.978;8.298;2022-12-29T20:16:53;6.28;;;1.33;;
23712;SDS011;12035;49.978;8.298;2022-12-29T20:21:50;5.80;;;1.38;;
23712;SDS011;12035;49.978;8.298;2022-12-29T20:26:49;7.05;;;1.48;;
23712;SDS011;12035;49.978;8.298;2022-12-29T20:31:47;8.68;;;1.40;;
23712;SDS011;12035;49.978;8.298;2022-12-29T20:36:47;7.22;;;2.03;;
23712;SDS011;12035;49.978;8.298;2022-12-29T20:41:46;8.48;;;1.48;;
23712;SDS011;12035;49.978;8.298;2022-12-29T20:46:46;5.60;;;1.20;;
23712;SDS011;12035;49.978;8.298;2022-12-29T20:51:43;5.82;;;1.55;;
23712;SDS011;12035;49.978;8.298;2022-12-29T20:56:42;6.82;;;1.20;;
23712;SDS011;12035;49.978;8.298;2022-12-29T21:01:41;7.20;;;1.17;;
23712;SDS011;12035;49.978;8.298;2022-12-29T21:06:38;4.80;;;1.13;;
23712;SDS011;12035;49.978;8.298;2022-12-29T21:11:36;6.90;;;1.60;;
23712;SDS011;12035;49.978;8.298;2022-12-29T21:21:31;8.87;;;2.20;;
23712;SDS011;12035;49.978;8.298;2022-12-29T21:26:28;6.95;;;1.50;;
23712;SDS011;12035;49.978;8.298;2022-12-29T21:31:27;8.18;;;1.58;;
23712;SDS011;12035;49.978;8.298;2022-12-29T21:36:28;10.02;;;1.90;;
23712;SDS011;12035;49.978;8.298;2022-12-29T21:41:28;4.80;;;1.45;;
23712;SDS011;12035;49.978;8.298;2022-12-29T21:46:26;5.03;;;1.35;;
23712;SDS011;12035;49.978;8.298;2022-12-29T21:51:23;5.35;;;1.00;;
23712;SDS011;12035;49.978;8.298;2022-12-29T21:56:39;7.07;;;1.10;;
23712;SDS011;12035;49.978;8.298;2022-12-29T22:01:39;6.28;;;1.55;;
23712;SDS011;12035;49.978;8.298;2022-12-29T22:06:54;10.88;;;1.40;;
23712;SDS011;12035;49.978;8.298;2022-12-29T22:12:10;7.32;;;2.60;;
23712;SDS011;12035;49.978;8.298;2022-12-29T22:17:25;6.85;;;1.40;;
23712;SDS011;12035;49.978;8.298;2022-12-29T22:22:22;6.53;;;1.35;;
23712;SDS011;12035;49.978;8.298;2022-12-29T22:27:21;10.15;;;1.35;;
23712;SDS011;12035;49.978;8.298;2022-12-29T22:32:19;4.85;;;1.13;;
23712;SDS011;12035;49.978;8.298;2022-12-29T22:37:16;8.10;;;1.27;;
23712;SDS011;12035;49.978;8.298;2022-12-29T22:42:13;4.80;;;1.15;;
23712;SDS011;12035;49.978;8.298;2022-12-29T22:47:13;7.63;;;1.25;;
23712;SDS011;12035;49.978;8.298;2022-12-29T22:52:10;6.85;;;1.40;;
23712;SDS011;12035;49.978;8.298;2022-12-29T22:57:08;9.80;;;1.40;;
23712;SDS011;12035;49.978;8.298;2022-12-29T23:02:05;10.50;;;1.35;;
23712;SDS011;12035;49.978;8.298;2022-12-29T23:07:03;3.95;;;0.93;;
23712;SDS011;12035;49.978;8.298;2022-12-29T23:12:02;7.50;;;1.13;;
23712;SDS011;12035;49.978;8.298;2022-12-29T23:16:59;5.82;;;1.50;;
23712;SDS011;12035;49.978;8.298;2022-12-29T23:21:56;7.35;;;1.60;;
23712;SDS011;12035;49.978;8.298;2022-12-29T23:26:55;4.13;;;1.17;;
23712;SDS011;12035;49.978;8.298;2022-12-29T23:31:52;5.07;;;1.17;;
23712;SDS011;12035;49.978;8.298;2022-12-29T23:36:49;6.82;;;1.48;;
23712;SDS011;12035;49.978;8.298;2022-12-29T23:41:48;8.13;;;1.95;;
23712;SDS011;12035;49.978;8.298;2022-12-29T23:46:46;5.43;;;1.45;;
23712;SDS011;12035;49.978;8.298;2022-12-29T23:51:44;7.47;;;1.55;;
23712;SDS011;12035;49.978;8.298;2022-12-29T23:56:41;7.95;;;1.65;;
